Time;durP1;ratioP1;P1;durP2;ratioP2;P2;SDS_P1;SDS_P2;PMS_P1;PMS_P2;Temp;Humidity;BMP_temperature;BMP_pressure;BME280_temperature;BME280_humidity;BME280_pressure;Samples;Min_cycle;Max_cycle;Signal;HPM_P1;HPM_P2
2023/09/01 00:00:58;;;;;;;;;;;13.40;99.90;;;;;;5029898;28;20044;-71
2023/09/01 00:03:24;;;;;;;5.32;1.60;;;13.40;99.90;;;;;;5040159;28;19940;-72
2023/09/01 00:05:50;;;;;;;3.38;1.40;;;13.30;99.90;;;;;;5047937;28;20044;-72
2023/09/01 00:08:15;;;;;;;3.33;1.33;;;13.30;99.90;;;;;;5045816;28;20120;-72
2023/09/01 00:10:41;;;;;;;4.18;1.85;;;13.30;99.90;;;;;;5051524;28;20466;-72
2023/09/01 00:13:07;;;;;;;4.80;1.90;;;13.20;99.90;;;;;;5028690;28;20071;-72
2023/09/01 00:15:33;;;;;;;7.70;2.08;;;13.20;99.90;;;;;;5041494;28;20293;-72
2023/09/01 00:17:59;;;;;;;4.63;1.85;;;13.10;99.90;;;;;;5031267;22;20664;-68
2023/09/01 00:20:27;;;;;;;7.13;3.15;;;13.00;99.90;;;;;;4991034;28;20045;-69
2023/09/01 00:22:53;;;;;;;4.28;2.35;;;13.00;99.90;;;;;;5023536;28;20374;-69
2023/09/01 00:25:19;;;;;;;6.30;2.22;;;13.00;99.90;;;;;;5004949;28;20045;-69
2023/09/01 00:27:44;;;;;;;6.43;3.03;;;13.00;99.90;;;;;;5001300;28;20434;-69
2023/09/01 00:30:11;;;;;;;6.68;3.00;;;12.90;99.90;;;;;;4982985;28;20060;-69
2023/09/01 00:32:36;;;;;;;4.70;2.63;;;12.80;99.90;;;;;;5005739;28;20049;-69
2023/09/01 00:35:05;;;;;;;4.90;2.30;;;12.80;99.90;;;;;;5000377;28;20038;-69
2023/09/01 00:37:31;;;;;;;5.25;1.88;;;12.90;99.90;;;;;;4998098;28;20050;-69
2023/09/01 00:39:57;;;;;;;4.18;1.90;;;12.80;99.90;;;;;;4998750;28;20471;-69
2023/09/01 00:42:22;;;;;;;5.00;1.63;;;12.80;99.90;;;;;;4999757;28;20103;-69
2023/09/01 00:44:48;;;;;;;5.00;1.88;;;12.80;99.90;;;;;;5000816;28;20080;-69
2023/09/01 00:47:14;;;;;;;5.30;2.03;;;12.80;99.90;;;;;;4997633;28;20057;-69
2023/09/01 00:49:40;;;;;;;3.60;1.58;;;12.70;99.90;;;;;;5001092;28;20037;-69
2023/09/01 00:52:07;;;;;;;3.55;1.52;;;12.70;99.90;;;;;;5000537;28;20046;-69
2023/09/01 00:54:33;;;;;;;;;;;12.70;99.90;;;;;;4996089;28;20038;-71
2023/09/01 00:56:59;;;;;;;3.95;1.80;;;12.70;99.90;;;;;;5001100;28;19960;-69
2023/09/01 00:59:25;;;;;;;4.45;1.92;;;12.60;99.90;;;;;;5002180;28;21284;-68
2023/09/01 01:01:52;;;;;;;4.80;2.05;;;12.60;99.90;;;;;;5000071;28;20077;-68
2023/09/01 01:04:20;;;;;;;4.13;1.83;;;12.60;99.90;;;;;;4998621;28;20042;-69
2023/09/01 01:07:06;;;;;;;3.15;1.83;;;12.50;99.90;;;;;;4985775;28;20042;-69
2023/09/01 01:09:40;;;;;;;4.03;2.28;;;12.50;99.90;;;;;;5004908;28;20042;-69
2023/09/01 01:12:16;;;;;;;5.30;1.60;;;12.50;99.90;;;;;;4979198;28;20038;-69
2023/09/01 01:14:48;;;;;;;5.80;2.13;;;12.40;99.90;;;;;;4999858;28;20045;-69
2023/09/01 01:17:19;;;;;;;3.30;1.95;;;12.40;99.90;;;;;;4998637;28;20558;-69
2023/09/01 01:19:53;;;;;;;5.82;1.80;;;12.40;99.90;;;;;;4999986;28;20041;-69
2023/09/01 01:22:32;;;;;;;4.28;2.20;;;12.40;99.90;;;;;;5000576;28;20491;-69
2023/09/01 01:24:58;;;;;;;3.22;1.83;;;12.40;99.90;;;;;;4992226;28;20694;-69
2023/09/01 01:27:23;;;;;;;4.40;1.90;;;12.40;99.90;;;;;;5004085;28;20050;-69
2023/09/01 01:29:49;;;;;;;3.10;1.73;;;12.40;99.90;;;;;;4997279;28;20050;-69
2023/09/01 01:32:15;;;;;;;3.83;1.88;;;12.40;99.90;;;;;;4997899;28;20046;-69
2023/09/01 01:34:53;;;;;;;4.85;1.80;;;12.40;99.90;;;;;;5003531;28;20389;-69
2023/09/01 01:37:38;;;;;;;6.68;2.08;;;12.40;99.90;;;;;;4999592;28;20085;-69
2023/09/01 01:40:07;;;;;;;3.70;2.00;;;12.40;99.90;;;;;;5003424;28;20054;-69
2023/09/01 01:42:35;;;;;;;10.93;2.60;;;12.40;99.90;;;;;;5002759;28;20050;-69
2023/09/01 01:45:02;;;;;;;5.10;2.05;;;12.40;99.90;;;;;;5004357;28;20128;-69
2023/09/01 01:47:30;;;;;;;4.97;2.28;;;12.40;99.90;;;;;;4999605;28;20042;-69
2023/09/01 01:49:56;;;;;;;5.30;2.20;;;12.40;99.90;;;;;;5001059;28;20177;-69
2023/09/01 01:52:22;;;;;;;6.05;2.13;;;12.30;99.90;;;;;;5001409;28;20665;-69
2023/09/01 01:54:47;;;;;;;5.13;2.93;;;12.30;99.90;;;;;;5001805;28;20126;-69
2023/09/01 01:57:14;;;;;;;4.87;2.30;;;12.30;99.90;;;;;;4998813;28;20044;-69
2023/09/01 01:59:43;;;;;;;3.45;1.80;;;12.30;99.90;;;;;;4983798;28;20284;-69
2023/09/01 02:02:09;;;;;;;3.58;2.10;;;12.30;99.90;;;;;;5019382;28;20056;-68
2023/09/01 02:04:35;;;;;;;5.40;2.22;;;12.20;99.90;;;;;;5000564;28;20124;-68
2023/09/01 02:07:05;;;;;;;;;;;12.20;99.90;;;;;;5006176;28;20056;-68
2023/09/01 02:09:31;;;;;;;4.40;2.45;;;12.20;99.90;;;;;;5000085;28;20263;-69
2023/09/01 02:11:57;;;;;;;;;;;12.20;99.90;;;;;;4998947;28;20181;-72
2023/09/01 02:14:22;;;;;;;4.35;2.20;;;12.20;99.90;;;;;;5004688;28;20377;-68
2023/09/01 02:16:49;;;;;;;4.20;2.37;;;12.20;99.90;;;;;;4993996;28;20446;-69
2023/09/01 02:19:14;;;;;;;;;;;12.20;99.90;;;;;;5002320;28;20065;-69
2023/09/01 02:21:40;;;;;;;3.22;1.70;;;12.10;99.90;;;;;;5006260;28;19921;-69
2023/09/01 02:24:06;;;;;;;4.13;2.10;;;12.10;99.90;;;;;;5011371;28;20038;-69
2023/09/01 02:26:32;;;;;;;5.40;1.98;;;12.10;99.90;;;;;;5002956;28;20307;-69
2023/09/01 02:28:58;;;;;;;3.43;2.00;;;12.00;99.90;;;;;;5008314;28;20507;-69
2023/09/01 02:31:24;;;;;;;3.88;1.90;;;12.00;99.90;;;;;;5005404;28;20620;-69
2023/09/01 02:33:50;;;;;;;3.53;1.98;;;12.00;99.90;;;;;;5001226;28;20056;-69
2023/09/01 02:36:35;;;;;;;7.10;2.05;;;12.00;99.90;;;;;;5006249;28;20293;-69
2023/09/01 02:39:04;;;;;;;4.15;1.80;;;12.00;99.90;;;;;;5009949;28;20049;-69
2023/09/01 02:41:30;;;;;;;6.05;2.38;;;11.90;99.90;;;;;;5003630;28;20045;-69
2023/09/01 02:43:57;;;;;;;3.42;1.83;;;11.90;99.90;;;;;;5003385;28;20045;-69
2023/09/01 02:46:23;;;;;;;4.65;2.13;;;11.90;99.90;;;;;;5003740;28;20041;-69
2023/09/01 02:48:49;;;;;;;9.38;2.25;;;11.90;99.90;;;;;;5008413;28;20045;-69
2023/09/01 02:51:15;;;;;;;4.28;2.03;;;11.90;99.90;;;;;;4999489;28;20066;-69
2023/09/01 02:53:41;;;;;;;5.47;2.00;;;11.90;99.90;;;;;;5007688;28;20049;-69
2023/09/01 02:56:07;;;;;;;3.88;1.90;;;11.80;99.90;;;;;;5002239;28;20042;-69
2023/09/01 02:58:33;;;;;;;5.82;2.10;;;11.80;99.90;;;;;;4997319;28;20157;-69
2023/09/01 03:01:11;;;;;;;5.63;2.20;;;11.80;99.90;;;;;;5005106;28;20030;-69
2023/09/01 03:03:38;;;;;;;4.18;2.03;;;11.80;99.90;;;;;;4990863;28;20484;-69
2023/09/01 03:06:10;;;;;;;4.53;2.22;;;11.70;99.90;;;;;;5004430;28;20065;-69
2023/09/01 03:08:37;;;;;;;2.65;1.60;;;11.70;99.90;;;;;;5007105;28;20376;-69
2023/09/01 03:11:03;;;;;;;4.10;2.15;;;11.70;99.90;;;;;;5005711;28;20211;-69
2023/09/01 03:13:29;;;;;;;6.32;2.45;;;11.60;99.90;;;;;;5004544;28;20077;-69
2023/09/01 03:15:55;;;;;;;4.38;2.42;;;11.60;99.90;;;;;;5005557;28;20399;-69
2023/09/01 03:18:22;;;;;;;5.80;2.30;;;11.60;99.90;;;;;;5002413;28;20695;-69
2023/09/01 03:20:49;;;;;;;7.03;2.28;;;11.60;99.90;;;;;;5003897;28;20069;-69
2023/09/01 03:23:15;;;;;;;3.97;2.35;;;11.60;99.90;;;;;;5009782;28;20048;-69
2023/09/01 03:25:40;;;;;;;6.40;2.20;;;11.60;99.90;;;;;;5008881;28;20053;-69
2023/09/01 03:28:06;;;;;;;6.87;2.00;;;11.50;99.90;;;;;;5008733;28;20177;-69
2023/09/01 03:30:32;;;;;;;4.80;2.30;;;11.50;99.90;;;;;;5001845;28;20046;-69
2023/09/01 03:32:58;;;;;;;6.67;2.33;;;11.50;99.90;;;;;;5010480;28;20073;-69
2023/09/01 03:35:23;;;;;;;3.80;2.03;;;11.50;99.90;;;;;;5001788;28;20054;-69
2023/09/01 03:37:49;;;;;;;4.30;2.37;;;11.50;99.90;;;;;;5012399;28;20777;-69
2023/09/01 03:40:16;;;;;;;5.30;2.03;;;11.50;99.90;;;;;;5006494;28;20049;-69
2023/09/01 03:42:41;;;;;;;3.65;2.20;;;11.50;99.90;;;;;;5001295;28;20046;-69
2023/09/01 03:45:08;;;;;;;4.13;1.98;;;11.40;99.90;;;;;;5001003;28;20042;-69
2023/09/01 03:47:33;;;;;;;3.60;2.20;;;11.40;99.90;;;;;;5002446;28;20053;-69
2023/09/01 03:49:59;;;;;;;4.43;2.33;;;11.40;99.90;;;;;;5007117;28;20095;-69
2023/09/01 03:52:26;;;;;;;6.88;3.28;;;11.40;99.90;;;;;;5000885;28;20038;-69
2023/09/01 03:54:52;;;;;;;4.63;2.42;;;11.30;99.90;;;;;;5006465;28;20046;-69
2023/09/01 03:57:17;;;;;;;4.15;2.05;;;11.40;99.90;;;;;;5004258;28;20472;-69
2023/09/01 03:59:44;;;;;;;4.80;2.67;;;11.30;99.90;;;;;;5007270;28;20061;-69
2023/09/01 04:02:10;;;;;;;4.57;2.42;;;11.30;99.90;;;;;;5001082;28;20297;-69
2023/09/01 04:04:36;;;;;;;4.60;2.58;;;11.30;99.90;;;;;;5000108;28;20045;-69
2023/09/01 04:07:02;;;;;;;;;;;11.30;99.90;;;;;;5009081;28;20052;-69
2023/09/01 04:09:28;;;;;;;5.07;2.20;;;11.20;99.90;;;;;;5005636;28;19918;-69
2023/09/01 04:11:54;;;;;;;3.80;2.13;;;11.20;99.90;;;;;;5000459;28;20096;-69
2023/09/01 04:14:20;;;;;;;;;;;11.20;99.90;;;;;;5000254;28;20440;-69
2023/09/01 04:16:46;;;;;;;4.70;2.25;;;11.20;99.90;;;;;;5004484;28;19940;-69
2023/09/01 04:19:11;;;;;;;3.65;1.88;;;11.10;99.90;;;;;;5003920;28;20038;-69
2023/09/01 04:21:37;;;;;;;2.40;1.88;;;11.20;99.90;;;;;;5005031;28;20187;-69
2023/09/01 04:24:03;;;;;;;5.20;2.70;;;11.10;99.90;;;;;;5003407;28;20041;-69
2023/09/01 04:26:28;;;;;;;10.13;2.40;;;11.10;99.90;;;;;;5007343;28;20291;-69
2023/09/01 04:28:54;;;;;;;5.30;2.78;;;11.10;99.90;;;;;;5005710;28;20741;-69
2023/09/01 04:31:29;;;;;;;4.67;2.37;;;11.10;99.90;;;;;;5003431;28;20033;-69
2023/09/01 04:33:56;;;;;;;5.15;2.35;;;11.10;99.90;;;;;;5008658;28;20042;-69
2023/09/01 04:36:22;;;;;;;;;;;11.10;99.90;;;;;;5002814;28;20085;-69
2023/09/01 04:38:48;;;;;;;4.15;2.30;;;11.10;99.90;;;;;;5008977;28;20366;-69
2023/09/01 04:41:14;;;;;;;5.97;2.40;;;11.00;99.90;;;;;;4980641;28;20038;-69
2023/09/01 04:43:39;;;;;;;7.65;2.58;;;11.00;99.90;;;;;;5001409;28;20353;-69
2023/09/01 04:46:05;;;;;;;4.75;2.50;;;11.00;99.90;;;;;;5003217;28;20045;-69
2023/09/01 04:48:31;;;;;;;4.00;2.35;;;11.00;99.90;;;;;;4998676;28;20045;-69
2023/09/01 04:51:00;;;;;;;4.10;2.28;;;11.00;99.90;;;;;;5003744;28;20065;-69
2023/09/01 04:53:25;;;;;;;5.28;2.10;;;11.00;99.90;;;;;;5004353;28;20045;-69
2023/09/01 04:55:54;;;;;;;6.40;2.50;;;10.90;99.90;;;;;;5007036;28;20103;-69
2023/09/01 04:58:20;;;;;;;5.20;2.42;;;10.90;99.90;;;;;;4995191;28;20057;-69
2023/09/01 05:00:46;;;;;;;3.72;2.45;;;10.90;99.90;;;;;;5003407;28;20488;-69
2023/09/01 05:03:11;;;;;;;9.07;3.00;;;10.90;99.90;;;;;;5004352;28;20085;-69
2023/09/01 05:05:37;;;;;;;4.00;2.60;;;11.00;99.90;;;;;;5001444;28;20389;-69
2023/09/01 05:08:03;;;;;;;4.03;2.40;;;10.90;99.90;;;;;;5001992;28;20038;-69
2023/09/01 05:10:32;;;;;;;4.15;2.30;;;11.00;99.90;;;;;;5003763;28;20049;-70
2023/09/01 05:12:57;;;;;;;4.43;2.63;;;10.90;99.90;;;;;;5001878;28;20060;-69
2023/09/01 05:15:23;;;;;;;6.60;2.42;;;11.00;99.90;;;;;;5001736;28;20113;-69
2023/09/01 05:17:49;;;;;;;3.88;2.00;;;11.00;99.90;;;;;;5005883;28;20049;-69
2023/09/01 05:20:14;;;;;;;5.50;2.50;;;11.00;99.90;;;;;;5000632;28;20049;-69
2023/09/01 05:22:44;;;;;;;5.80;2.20;;;11.00;99.90;;;;;;4988008;28;20177;-69
2023/09/01 05:25:11;;;;;;;5.43;2.80;;;11.10;99.90;;;;;;5005458;28;20042;-69
2023/09/01 05:27:36;;;;;;;3.75;2.28;;;11.10;99.90;;;;;;5000253;28;20052;-69
2023/09/01 05:30:02;;;;;;;5.37;2.87;;;11.20;99.90;;;;;;5000660;28;20050;-69
2023/09/01 05:32:29;;;;;;;7.95;2.55;;;11.20;99.90;;;;;;5005505;28;20371;-69
2023/09/01 05:34:55;;;;;;;6.50;2.78;;;11.20;99.90;;;;;;5002138;28;20096;-69
2023/09/01 05:37:20;;;;;;;5.07;2.63;;;11.30;99.90;;;;;;5004465;28;21251;-69
2023/09/01 05:39:46;;;;;;;5.17;2.37;;;11.40;99.90;;;;;;5001467;28;20046;-69
2023/09/01 05:42:14;;;;;;;4.33;2.33;;;11.40;99.90;;;;;;4996488;28;20294;-69
2023/09/01 05:44:40;;;;;;;5.38;2.58;;;11.40;99.90;;;;;;5003807;28;20042;-69
2023/09/01 05:47:06;;;;;;;;;;;11.50;99.90;;;;;;5007751;28;20153;-69
2023/09/01 05:49:33;;;;;;;4.20;2.13;;;11.60;99.90;;;;;;5004923;28;19924;-69
2023/09/01 05:52:02;;;;;;;4.82;2.67;;;11.60;99.90;;;;;;4999696;28;20045;-69
2023/09/01 05:54:28;;;;;;;4.45;2.00;;;11.70;99.90;;;;;;4989523;28;20030;-69
2023/09/01 05:56:54;;;;;;;4.20;2.25;;;11.70;99.90;;;;;;5010604;28;20460;-69
2023/09/01 05:59:22;;;;;;;4.97;2.40;;;11.80;99.90;;;;;;5006686;28;20054;-69
2023/09/01 06:01:48;;;;;;;6.85;2.33;;;11.90;99.90;;;;;;5006823;28;20088;-69
2023/09/01 06:04:13;;;;;;;5.90;2.03;;;11.90;99.90;;;;;;5009526;28;20045;-69
2023/09/01 06:06:40;;;;;;;4.95;2.40;;;12.00;99.90;;;;;;4989624;28;20454;-69
2023/09/01 06:09:07;;;;;;;7.20;2.08;;;12.10;99.90;;;;;;5005213;28;20391;-69
2023/09/01 06:11:33;;;;;;;3.55;2.20;;;12.10;99.90;;;;;;5007189;28;20042;-69
2023/09/01 06:14:00;;;;;;;5.65;2.78;;;12.10;99.90;;;;;;4997312;28;20038;-69
2023/09/01 06:16:26;;;;;;;5.32;2.20;;;12.20;99.90;;;;;;5005959;28;20283;-69
2023/09/01 06:18:57;;;;;;;6.63;2.50;;;12.30;99.90;;;;;;5000200;28;20488;-69
2023/09/01 06:21:23;;;;;;;7.25;2.17;;;12.30;99.90;;;;;;5000135;28;20050;-69
2023/09/01 06:26:30;;;;;;;4.25;2.35;;;12.50;99.90;;;;;;5028109;28;20056;-71
2023/09/01 06:28:56;;;;;;;4.70;2.22;;;12.60;99.90;;;;;;5010080;28;20052;-71
2023/09/01 06:31:21;;;;;;;5.07;2.17;;;12.60;99.90;;;;;;5009869;28;20064;-71
2023/09/01 06:33:47;;;;;;;4.97;2.37;;;12.70;99.90;;;;;;5011483;28;20421;-71
2023/09/01 06:36:13;;;;;;;8.00;1.90;;;12.80;99.90;;;;;;5008865;28;20037;-71
2023/09/01 06:38:40;;;;;;;8.05;2.30;;;12.80;99.90;;;;;;5012639;28;20049;-72
2023/09/01 06:41:06;;;;;;;5.85;2.40;;;12.90;99.90;;;;;;5011403;28;20049;-70
2023/09/01 06:43:32;;;;;;;8.75;1.98;;;13.00;99.90;;;;;;5007001;28;20101;-71
2023/09/01 06:45:58;;;;;;;4.90;2.17;;;13.10;99.90;;;;;;5012674;28;20060;-71
2023/09/01 06:48:24;;;;;;;5.30;1.90;;;13.10;99.90;;;;;;5027066;28;20156;-71
2023/09/01 06:50:50;;;;;;;4.97;1.48;;;13.20;99.90;;;;;;5025444;28;20046;-70
2023/09/01 06:53:15;;;;;;;5.45;1.80;;;13.20;99.90;;;;;;5007172;28;20117;-70
2023/09/01 06:55:41;;;;;;;4.67;2.00;;;13.30;99.90;;;;;;5025080;28;20399;-71
2023/09/01 06:58:07;;;;;;;3.33;1.60;;;13.40;99.90;;;;;;5010119;28;20367;-71
2023/09/01 07:00:33;;;;;;;6.80;1.88;;;13.40;99.90;;;;;;5025706;28;20243;-71
2023/09/01 07:02:59;;;;;;;2.77;1.77;;;13.40;99.90;;;;;;5008631;28;20111;-70
2023/09/01 07:05:24;;;;;;;7.30;1.70;;;13.50;99.90;;;;;;5008690;28;20305;-71
2023/09/01 07:07:52;;;;;;;6.13;1.67;;;13.60;99.90;;;;;;5027120;28;20050;-71
2023/09/01 07:10:18;;;;;;;2.97;1.50;;;13.60;99.90;;;;;;5023323;28;20392;-70
2023/09/01 07:12:44;;;;;;;3.47;2.17;;;13.70;99.90;;;;;;5027451;28;20107;-70
2023/09/01 07:15:10;;;;;;;4.88;1.73;;;13.80;99.90;;;;;;5006033;28;20038;-71
2023/09/01 07:17:36;;;;;;;5.03;1.73;;;13.90;99.90;;;;;;5025706;28;20174;-71
2023/09/01 07:20:03;;;;;;;4.65;1.13;;;13.90;99.90;;;;;;5004806;28;20041;-71
2023/09/01 07:22:29;;;;;;;11.65;2.15;;;14.10;99.90;;;;;;5028758;28;20049;-71
2023/09/01 07:24:54;;;;;;;3.67;1.73;;;14.20;99.90;;;;;;5026419;28;20462;-71
2023/09/01 07:27:20;;;;;;;6.90;1.70;;;14.20;99.90;;;;;;5026673;28;20080;-71
2023/09/01 07:29:48;;;;;;;5.95;1.85;;;14.30;99.90;;;;;;5013904;28;20041;-71
2023/09/01 07:32:15;;;;;;;2.95;1.70;;;14.40;99.90;;;;;;5007932;28;20133;-71
2023/09/01 07:34:41;;;;;;;5.85;2.25;;;14.40;99.90;;;;;;5009306;28;20558;-70
2023/09/01 07:37:06;;;;;;;5.97;1.70;;;14.50;99.90;;;;;;5028049;28;20346;-71
2023/09/01 07:39:32;;;;;;;6.03;2.08;;;14.50;99.90;;;;;;5008851;28;20046;-71
2023/09/01 07:41:58;;;;;;;5.15;1.67;;;14.50;99.90;;;;;;5025739;28;20447;-71
2023/09/01 07:44:24;;;;;;;4.97;1.85;;;14.60;99.90;;;;;;5011177;28;20049;-71
2023/09/01 07:46:50;;;;;;;4.72;1.88;;;14.70;99.90;;;;;;5026244;28;20139;-71
2023/09/01 07:49:15;;;;;;;3.93;1.70;;;14.70;99.90;;;;;;5009081;28;20144;-71
2023/09/01 07:51:43;;;;;;;4.22;1.98;;;14.70;99.90;;;;;;5025329;28;20039;-71
2023/09/01 07:54:08;;;;;;;3.50;1.73;;;14.80;99.90;;;;;;5009038;28;20090;-71
2023/09/01 07:56:34;;;;;;;3.80;1.75;;;14.90;99.90;;;;;;5023074;28;20041;-71
2023/09/01 07:59:01;;;;;;;9.98;2.25;;;15.00;99.90;;;;;;5026046;28;20037;-71
2023/09/01 08:01:28;;;;;;;4.57;1.90;;;15.00;99.90;;;;;;5026182;28;20041;-73
2023/09/01 08:03:54;;;;;;;4.35;1.73;;;15.10;99.90;;;;;;5007510;28;20057;-70
2023/09/01 08:06:20;;;;;;;;;;;15.20;99.90;;;;;;5024701;28;20037;-70
2023/09/01 08:08:45;;;;;;;2.80;1.40;;;15.20;99.90;;;;;;5008679;28;19991;-70
2023/09/01 08:11:11;;;;;;;4.78;1.85;;;15.30;99.90;;;;;;5005228;28;20045;-70
2023/09/01 08:13:36;;;;;;;3.40;1.17;;;15.40;99.90;;;;;;5007680;28;20128;-70
2023/09/01 08:16:02;;;;;;;6.10;1.77;;;15.50;99.90;;;;;;5006918;28;20034;-70
2023/09/01 08:18:28;;;;;;;5.93;1.63;;;15.50;99.90;;;;;;5005974;28;20092;-71
2023/09/01 08:20:54;;;;;;;5.03;2.30;;;15.60;99.90;;;;;;5011720;28;20384;-70
2023/09/01 08:23:21;;;;;;;4.82;1.65;;;15.70;99.90;;;;;;5006377;28;20127;-70
2023/09/01 08:25:48;;;;;;;3.90;1.52;;;15.80;99.90;;;;;;5022694;28;20065;-70
2023/09/01 08:28:13;;;;;;;3.00;1.13;;;15.90;99.90;;;;;;5025726;28;20083;-70
2023/09/01 08:30:39;;;;;;;4.35;1.70;;;15.90;99.90;;;;;;5007280;28;20045;-70
2023/09/01 08:33:05;;;;;;;2.75;1.35;;;16.00;99.90;;;;;;5024413;28;20087;-71
2023/09/01 08:35:31;;;;;;;4.78;1.63;;;16.00;99.90;;;;;;5024708;28;20042;-70
2023/09/01 08:37:56;;;;;;;6.18;1.80;;;16.10;99.90;;;;;;5007651;28;20343;-70
2023/09/01 08:40:22;;;;;;;2.92;1.23;;;16.10;99.90;;;;;;5007060;28;20119;-70
2023/09/01 08:42:49;;;;;;;3.78;1.27;;;16.20;99.90;;;;;;5008318;28;20162;-69
2023/09/01 08:45:17;;;;;;;3.40;1.15;;;16.20;99.90;;;;;;5022604;28;20101;-70
2023/09/01 08:47:45;;;;;;;3.65;1.25;;;16.30;99.90;;;;;;5008323;28;20072;-71
2023/09/01 08:50:12;;;;;;;5.82;1.30;;;16.30;99.90;;;;;;5008183;28;20060;-70
2023/09/01 08:52:40;;;;;;;5.22;1.48;;;16.30;99.90;;;;;;5006899;28;20098;-70
2023/09/01 08:55:06;;;;;;;4.80;2.05;;;16.40;99.90;;;;;;5005700;28;20041;-70
2023/09/01 08:57:32;;;;;;;3.53;1.38;;;16.40;99.90;;;;;;5007799;28;20053;-69
2023/09/01 08:59:58;;;;;;;3.20;1.65;;;16.50;99.90;;;;;;5005295;28;20457;-70
2023/09/01 09:02:23;;;;;;;2.05;1.27;;;16.50;99.90;;;;;;5006071;28;20191;-70
2023/09/01 09:04:49;;;;;;;2.70;1.15;;;16.50;99.90;;;;;;5008325;28;20073;-70
2023/09/01 09:07:17;;;;;;;2.72;0.98;;;16.50;99.90;;;;;;5007206;28;20081;-70
2023/09/01 09:09:51;;;;;;;2.55;1.05;;;16.60;99.90;;;;;;5026545;28;20124;-70
2023/09/01 09:12:18;;;;;;;3.10;0.90;;;16.60;99.90;;;;;;5004386;28;20438;-70
2023/09/01 09:14:50;;;;;;;3.67;1.10;;;16.60;99.90;;;;;;5005443;28;20052;-70
2023/09/01 09:17:17;;;;;;;2.53;1.00;;;16.70;99.90;;;;;;5009997;28;20414;-70
2023/09/01 09:19:59;;;;;;;3.20;1.15;;;16.70;99.90;;;;;;5006094;28;20479;-70
2023/09/01 09:22:25;;;;;;;2.65;0.73;;;16.70;99.90;;;;;;5005838;28;20126;-70
2023/09/01 09:24:51;;;;;;;2.53;0.70;;;16.70;99.90;;;;;;5019546;28;20128;-69
2023/09/01 09:27:18;;;;;;;3.22;0.80;;;16.80;99.90;;;;;;5006255;28;20041;-69
2023/09/01 09:29:48;;;;;;;5.25;1.02;;;16.80;99.90;;;;;;5005967;28;20041;-70
2023/09/01 09:32:21;;;;;;;4.75;0.95;;;16.90;99.90;;;;;;5022284;28;20049;-70
2023/09/01 09:35:09;;;;;;;1.65;0.82;;;16.90;99.90;;;;;;5024016;28;20045;-70
2023/09/01 09:37:36;;;;;;;2.25;0.98;;;16.90;99.90;;;;;;5021474;28;20111;-70
2023/09/01 09:40:14;;;;;;;2.00;1.00;;;16.90;99.90;;;;;;5007847;28;20175;-70
2023/09/01 09:42:41;;;;;;;2.40;1.30;;;16.90;99.90;;;;;;5021558;28;20454;-70
2023/09/01 09:45:28;;;;;;;4.05;1.10;;;16.90;99.90;;;;;;5007094;28;20480;-71
2023/09/01 09:47:58;;;;;;;4.05;1.10;;;17.00;99.90;;;;;;5004017;28;20042;-70
2023/09/01 09:50:24;;;;;;;3.40;1.10;;;17.00;99.90;;;;;;5022569;28;20053;-70
2023/09/01 09:53:04;;;;;;;4.97;1.40;;;17.00;99.90;;;;;;5004497;28;20446;-71
2023/09/01 09:55:30;;;;;;;7.35;1.25;;;17.00;99.90;;;;;;5020756;28;20056;-71
2023/09/01 09:58:17;;;;;;;4.68;1.40;;;17.00;99.90;;;;;;5006003;28;20041;-71
2023/09/01 10:01:02;;;;;;;3.70;1.25;;;17.00;99.90;;;;;;5005359;28;20175;-71
2023/09/01 10:03:31;;;;;;;3.10;1.33;;;17.00;99.90;;;;;;5005906;28;20045;-70
2023/09/01 10:05:58;;;;;;;5.30;1.38;;;17.00;99.90;;;;;;5024545;28;20116;-70
2023/09/01 10:08:25;;;;;;;3.22;1.33;;;17.10;99.90;;;;;;5009554;28;20496;-70
2023/09/01 10:10:51;;;;;;;;;;;17.10;99.90;;;;;;5007194;28;20048;-70
2023/09/01 10:13:19;;;;;;;2.95;1.20;;;17.20;99.90;;;;;;5021697;28;19921;-70
2023/09/01 10:15:46;;;;;;;5.10;0.90;;;17.30;99.90;;;;;;5018022;28;20096;-70
2023/09/01 10:18:12;;;;;;;5.35;1.00;;;17.40;99.90;;;;;;5011888;28;20044;-70
2023/09/01 10:20:40;;;;;;;2.95;1.02;;;17.50;99.90;;;;;;5027864;28;20041;-70
2023/09/01 10:23:07;;;;;;;3.63;0.93;;;17.60;99.90;;;;;;5008892;28;20179;-70
2023/09/01 10:25:36;;;;;;;3.28;1.38;;;17.60;99.90;;;;;;5012961;28;20044;-70
2023/09/01 10:28:06;;;;;;;1.25;0.90;;;17.70;99.90;;;;;;5004875;28;20050;-70
2023/09/01 10:30:39;;;;;;;2.85;0.98;;;17.80;99.90;;;;;;5021644;28;20115;-70
2023/09/01 10:33:26;;;;;;;2.45;0.93;;;17.80;99.90;;;;;;5024713;28;20055;-69
2023/09/01 10:35:57;;;;;;;6.28;1.20;;;17.90;99.90;;;;;;5025435;28;20060;-70
2023/09/01 10:38:32;;;;;;;4.15;1.13;;;18.00;99.90;;;;;;5006879;28;20042;-70
2023/09/01 10:40:58;;;;;;;3.78;1.40;;;18.10;99.90;;;;;;5026541;28;20037;-69
2023/09/01 10:43:36;;;;;;;2.88;1.42;;;18.20;99.90;;;;;;5008791;28;20064;-70
2023/09/01 10:46:23;;;;;;;4.07;0.90;;;18.30;99.90;;;;;;5030073;28;20172;-69
2023/09/01 10:48:57;;;;;;;3.17;1.20;;;18.40;99.90;;;;;;5023448;28;20092;-69
2023/09/01 10:51:27;;;;;;;3.25;1.17;;;18.40;99.90;;;;;;5010954;28;20053;-71
2023/09/01 10:53:57;;;;;;;2.53;1.08;;;18.70;99.90;;;;;;5009871;28;20073;-70
2023/09/01 10:56:24;;;;;;;6.18;0.98;;;18.80;99.90;;;;;;5006922;28;20037;-70
2023/09/01 10:58:52;;;;;;;5.55;1.42;;;19.10;99.90;;;;;;5023862;28;20049;-70
2023/09/01 11:01:32;;;;;;;3.45;1.02;;;19.30;99.90;;;;;;5008794;28;20041;-70
2023/09/01 11:04:13;;;;;;;5.22;1.95;;;19.50;99.90;;;;;;5004083;28;20045;-70
2023/09/01 11:07:00;;;;;;;5.18;0.88;;;19.60;99.90;;;;;;5022914;28;20457;-70
2023/09/01 11:09:35;;;;;;;3.03;1.13;;;19.60;99.90;;;;;;5006082;28;20045;-70
2023/09/01 11:12:04;;;;;;;3.38;1.02;;;19.50;99.90;;;;;;5006362;28;20128;-70
2023/09/01 11:14:31;;;;;;;3.80;1.63;;;19.50;99.90;;;;;;5008116;28;20060;-70
2023/09/01 11:16:57;;;;;;;4.03;1.25;;;19.50;99.90;;;;;;5009767;28;20467;-69
2023/09/01 11:19:23;;;;;;;;;;;19.60;99.90;;;;;;5007274;28;20507;-70
2023/09/01 11:21:50;;;;;;;3.92;1.33;;;19.70;99.90;;;;;;5009450;28;19929;-69
2023/09/01 11:24:20;;;;;;;3.78;0.98;;;19.80;99.90;;;;;;5005823;28;20816;-69
2023/09/01 11:26:48;;;;;;;2.83;1.17;;;19.90;99.90;;;;;;5002404;28;20045;-69
2023/09/01 11:29:14;;;;;;;4.88;1.38;;;19.90;99.90;;;;;;5012085;28;20468;-72
2023/09/01 11:31:43;;;;;;;4.38;1.55;;;20.00;99.90;;;;;;5003884;28;20087;-72
2023/09/01 11:34:10;;;;;;;2.40;1.05;;;20.10;99.90;;;;;;5012222;28;20140;-71
2023/09/01 11:36:50;;;;;;;3.35;1.30;;;20.20;99.90;;;;;;5006111;28;20068;-69
2023/09/01 11:39:16;;;;;;;3.60;1.15;;;20.40;99.90;;;;;;4989269;28;20421;-69
2023/09/01 11:41:43;;;;;;;5.70;1.33;;;20.50;99.90;;;;;;5026154;28;20076;-69
2023/09/01 11:44:09;;;;;;;4.38;1.52;;;20.50;99.90;;;;;;5006978;28;20049;-69
2023/09/01 11:46:37;;;;;;;4.45;1.58;;;20.50;99.90;;;;;;5005600;28;20420;-69
2023/09/01 11:49:04;;;;;;;3.88;1.50;;;20.50;99.90;;;;;;5013059;28;20076;-69
2023/09/01 11:51:35;;;;;;;6.03;1.83;;;20.40;99.90;;;;;;5007174;28;20053;-69
2023/09/01 11:54:01;;;;;;;7.50;1.88;;;20.50;99.90;;;;;;5007348;28;20052;-69
2023/09/01 11:56:27;;;;;;;3.25;1.45;;;20.50;99.90;;;;;;4988714;28;20445;-69
2023/09/01 11:58:55;;;;;;;3.78;1.52;;;20.50;99.90;;;;;;5007902;28;20132;-69
2023/09/01 12:01:23;;;;;;;4.07;1.73;;;20.40;99.90;;;;;;5004017;28;20132;-69
2023/09/01 12:03:54;;;;;;;5.32;1.95;;;20.40;99.90;;;;;;5005991;28;20278;-69
2023/09/01 12:06:24;;;;;;;5.43;1.63;;;20.30;99.90;;;;;;5005292;28;20057;-70
2023/09/01 12:08:52;;;;;;;2.90;1.60;;;20.30;99.90;;;;;;5031018;28;20080;-69
2023/09/01 12:11:19;;;;;;;6.35;1.85;;;20.30;99.90;;;;;;5024576;28;20044;-69
2023/09/01 12:13:44;;;;;;;6.93;2.25;;;20.20;99.90;;;;;;4992357;28;20372;-69
2023/09/01 12:16:24;;;;;;;4.45;1.75;;;20.20;99.90;;;;;;5008266;28;20053;-70
2023/09/01 12:18:52;;;;;;;7.63;1.77;;;20.30;99.90;;;;;;5023845;28;20041;-70
2023/09/01 12:21:18;;;;;;;4.90;1.85;;;20.50;99.90;;;;;;5007698;28;20144;-70
2023/09/01 12:23:45;;;;;;;5.28;1.90;;;20.70;99.90;;;;;;5025871;28;20148;-70
2023/09/01 12:26:12;;;;;;;5.43;1.60;;;20.80;99.90;;;;;;5045018;22;20044;-70
2023/09/01 12:28:40;;;;;;;8.20;2.00;;;20.80;99.90;;;;;;5082573;28;20064;-70
2023/09/01 12:31:07;;;;;;;8.38;2.00;;;20.90;99.90;;;;;;5083124;28;20486;-70
2023/09/01 12:33:34;;;;;;;7.93;2.13;;;21.00;99.90;;;;;;5080233;28;20068;-70
2023/09/01 12:36:01;;;;;;;4.80;1.90;;;21.10;99.90;;;;;;5069338;28;20127;-70
2023/09/01 12:38:27;;;;;;;4.47;1.65;;;21.30;99.90;;;;;;5079164;28;20451;-70
2023/09/01 12:40:52;;;;;;;;;;;21.40;99.90;;;;;;5050997;28;20044;-70
2023/09/01 12:43:18;;;;;;;4.35;1.77;;;21.50;99.90;;;;;;5073790;28;19920;-70
2023/09/01 12:45:44;;;;;;;;;;;21.70;99.90;;;;;;5078361;28;20040;-70
2023/09/01 12:48:10;;;;;;;8.43;1.60;;;21.80;99.90;;;;;;5060465;28;19969;-70
2023/09/01 12:50:36;;;;;;;5.47;2.00;;;22.00;99.90;;;;;;5074485;28;20095;-70
2023/09/01 12:53:02;;;;;;;;;;;22.30;99.90;;;;;;5061696;28;20715;-70
2023/09/01 12:55:28;;;;;;;4.32;1.70;;;22.40;99.90;;;;;;5052345;28;20248;-70